createdAt,value
2018-07-06T00:00:57.455Z,80.11
2018-07-06T00:01:57.248Z,80.79
2018-07-06T00:02:57.427Z,80.98
2018-07-06T00:03:57.439Z,80.88
2018-07-06T00:04:57.451Z,80.88
2018-07-06T00:05:57.442Z,81.37
2018-07-06T00:06:57.194Z,81.46
2018-07-06T00:07:57.143Z,81.17
2018-07-06T00:08:57.179Z,81.37
2018-07-06T00:09:57.411Z,80.69
2018-07-06T00:10:57.435Z,81.27
2018-07-06T00:11:57.412Z,81.27
2018-07-06T00:12:57.221Z,81.75
2018-07-06T00:13:57.240Z,81.07
2018-07-06T00:14:57.222Z,81.17
2018-07-06T00:15:57.427Z,81.07
2018-07-06T00:16:57.425Z,81.99
2018-07-06T00:17:57.433Z,81.99
2018-07-06T00:18:57.287Z,82.67
2018-07-06T00:19:57.258Z,82.38
2018-07-06T00:20:57.190Z,82.38
2018-07-06T00:21:57.240Z,82.38
2018-07-06T00:22:57.173Z,82.14
2018-07-06T00:23:57.416Z,82.32
2018-07-06T00:24:57.417Z,82.71
2018-07-06T00:25:57.287Z,82.04
2018-07-06T00:26:57.219Z,82.52
2018-07-06T00:27:57.218Z,82.57
2018-07-06T00:28:57.215Z,82.48
2018-07-06T00:29:57.218Z,82.38
2018-07-06T00:30:57.220Z,82.48
2018-07-06T00:31:57.244Z,83.63
2018-07-06T00:32:57.211Z,83.34
2018-07-06T00:33:57.272Z,83.06
2018-07-06T00:34:57.207Z,82.76
2018-07-06T00:35:57.227Z,82.67
2018-07-06T00:36:57.194Z,83.06
2018-07-06T00:37:57.174Z,83.44
2018-07-06T00:38:57.191Z,84.21
2018-07-06T00:39:57.173Z,83.83
2018-07-06T00:40:57.191Z,83.92
2018-07-06T00:41:57.208Z,84.40
2018-07-06T00:42:57.166Z,84.69
2018-07-06T00:43:57.438Z,84.50
2018-07-06T00:44:57.442Z,84.30
2018-07-06T00:45:57.287Z,84.11
2018-07-06T00:46:57.445Z,84.30
2018-07-06T00:47:57.411Z,84.21
2018-07-06T00:48:57.465Z,84.78
2018-07-06T00:49:57.223Z,84.40
2018-07-06T00:50:57.228Z,85.13
2018-07-06T00:51:57.270Z,85.32
2018-07-06T00:52:57.255Z,85.27
2018-07-06T00:53:57.254Z,84.78
2018-07-06T00:54:57.430Z,84.98
2018-07-06T00:55:57.248Z,84.94
2018-07-06T00:56:57.248Z,85.61
2018-07-06T00:57:57.755Z,85.61
2018-07-06T00:58:57.209Z,85.61
2018-07-06T00:59:57.239Z,86.47
2018-07-06T01:00:57.205Z,86.09
2018-07-06T01:01:57.248Z,85.46
2018-07-06T01:02:57.453Z,85.22
2018-07-06T01:03:57.239Z,85.41
2018-07-06T01:04:57.236Z,85.46
2018-07-06T01:05:57.457Z,85.75
2018-07-06T01:06:57.172Z,85.07
2018-07-06T01:07:57.118Z,85.65
2018-07-06T01:08:57.164Z,85.55
2018-07-06T01:09:57.170Z,85.55
2018-07-06T01:10:57.159Z,84.98
2018-07-06T01:11:57.186Z,85.71
2018-07-06T01:12:57.160Z,85.65
2018-07-06T01:13:57.156Z,85.17
2018-07-06T01:14:57.202Z,84.88
2018-07-06T01:15:57.917Z,85.17
2018-07-06T01:16:57.233Z,85.07
2018-07-06T01:17:57.217Z,85.84
2018-07-06T01:18:57.184Z,84.98
2018-07-06T01:19:57.461Z,84.88
2018-07-06T01:20:57.430Z,85.55
2018-07-06T01:21:57.243Z,85.27
2018-07-06T01:22:57.197Z,84.59
2018-07-06T01:23:57.452Z,85.07
2018-07-06T01:24:57.450Z,85.46
2018-07-06T01:25:57.460Z,85.36
2018-07-06T01:26:57.451Z,84.98
2018-07-06T01:27:57.236Z,85.55
2018-07-06T01:28:57.463Z,85.61
2018-07-06T01:29:57.293Z,85.89
2018-07-06T01:30:57.459Z,86.32
2018-07-06T01:31:57.454Z,85.65
2018-07-06T01:32:57.240Z,86.13
2018-07-06T01:33:57.251Z,86.09
2018-07-06T01:34:57.272Z,85.46
2018-07-06T01:35:57.308Z,85.46
2018-07-06T01:36:57.347Z,85.36
2018-07-06T01:37:57.373Z,86.09
2018-07-06T01:38:57.403Z,86.57
2018-07-06T01:39:57.215Z,86.28
2018-07-06T01:40:57.483Z,86.13
2018-07-06T01:41:57.324Z,86.13
2018-07-06T01:42:57.364Z,85.46
2018-07-06T01:43:57.175Z,86.38
2018-07-06T01:44:57.440Z,86.13
2018-07-06T01:45:57.158Z,86.38
2018-07-06T01:46:56.939Z,86.57
2018-07-06T01:47:57.155Z,85.89
2018-07-06T01:48:57.220Z,87.15
2018-07-06T01:49:57.227Z,86.66
2018-07-06T01:50:57.286Z,87.53
2018-07-06T01:51:57.300Z,87.82
2018-07-06T01:52:57.539Z,87.82
2018-07-06T01:53:57.231Z,87.72
2018-07-06T01:54:57.212Z,87.92
2018-07-06T01:55:57.231Z,87.24
2018-07-06T01:56:57.463Z,87.24
2018-07-06T01:57:57.534Z,87.34
2018-07-06T01:58:56.943Z,87.24
2018-07-06T01:59:57.490Z,87.53
2018-07-06T02:00:57.466Z,86.85
2018-07-06T02:01:57.461Z,86.85
2018-07-06T02:02:57.811Z,87.15
2018-07-06T02:03:56.885Z,87.15
2018-07-06T02:04:57.236Z,87.24
2018-07-06T02:05:57.640Z,86.76
2018-07-06T02:06:57.472Z,86.85
2018-07-06T02:07:57.471Z,86.90
2018-07-06T02:08:57.257Z,86.04
2018-07-06T02:09:57.273Z,86.52
2018-07-06T02:10:57.474Z,87.34
2018-07-06T02:11:57.267Z,86.85
2018-07-06T02:12:57.447Z,87.34
2018-07-06T02:13:57.497Z,87.05
2018-07-06T02:14:57.456Z,87.43
2018-07-06T02:15:57.480Z,87.34
2018-07-06T02:16:57.457Z,87.05
2018-07-06T02:17:57.249Z,87.53
2018-07-06T02:18:57.494Z,87.82
2018-07-06T02:19:57.256Z,87.62
2018-07-06T02:20:57.470Z,88.20
2018-07-06T02:21:57.458Z,87.72
2018-07-06T02:22:56.876Z,87.24
2018-07-06T02:23:57.453Z,87.24
2018-07-06T02:24:57.491Z,87.15
2018-07-06T02:25:57.475Z,87.72
2018-07-06T02:26:57.476Z,88.01
2018-07-06T02:27:57.257Z,87.38
2018-07-06T02:28:57.263Z,87.43
2018-07-06T02:29:57.476Z,87.53
2018-07-06T02:30:57.478Z,87.53
2018-07-06T02:31:57.480Z,87.82
2018-07-06T02:32:56.957Z,87.38
2018-07-06T02:33:57.475Z,87.82
2018-07-06T02:34:57.328Z,87.62
2018-07-06T02:35:57.301Z,88.49
2018-07-06T02:36:56.887Z,88.39
2018-07-06T02:37:57.319Z,87.67
2018-07-06T02:38:57.505Z,88.01
2018-07-06T02:39:57.503Z,88.30
2018-07-06T02:40:57.328Z,88.49
2018-07-06T02:41:57.466Z,88.01
2018-07-06T02:42:57.496Z,87.72
2018-07-06T02:43:57.467Z,88.20
2018-07-06T02:44:57.312Z,89.07
2018-07-06T02:45:57.502Z,88.39
2018-07-06T02:46:55.864Z,88.30
2018-07-06T02:47:57.483Z,88.87
2018-07-06T02:48:57.260Z,88.87
2018-07-06T02:49:57.480Z,88.87
2018-07-06T02:50:57.479Z,89.07
2018-07-06T02:51:57.255Z,88.97
2018-07-06T02:52:57.481Z,89.26
2018-07-06T02:53:57.498Z,89.16
2018-07-06T02:54:57.313Z,89.07
2018-07-06T02:55:57.473Z,89.26
2018-07-06T02:56:57.302Z,89.16
2018-07-06T02:57:57.324Z,88.78
2018-07-06T02:58:57.463Z,88.78
2018-07-06T02:59:57.802Z,89.16
2018-07-06T03:00:57.308Z,89.74
2018-07-06T03:01:57.221Z,89.07
2018-07-06T03:02:57.375Z,89.45
2018-07-06T03:03:57.367Z,89.74
2018-07-06T03:04:57.392Z,90.51
2018-07-06T03:05:58.999Z,89.36
2018-07-06T03:06:57.358Z,89.74
2018-07-06T03:07:57.359Z,89.64
2018-07-06T03:08:57.966Z,89.26
2018-07-06T03:09:57.430Z,89.45
2018-07-06T03:10:57.403Z,89.83
2018-07-06T03:11:57.335Z,89.26
2018-07-06T03:12:57.388Z,89.64
2018-07-06T03:13:57.816Z,89.16
2018-07-06T03:14:57.514Z,89.74
2018-07-06T03:15:57.249Z,89.01
2018-07-06T03:16:57.246Z,88.82
2018-07-06T03:17:57.494Z,89.26
2018-07-06T03:18:57.489Z,89.59
2018-07-06T03:19:57.333Z,89.07
2018-07-06T03:20:57.496Z,89.07
2018-07-06T03:21:57.390Z,89.16
2018-07-06T03:22:57.516Z,89.11
2018-07-06T03:23:57.498Z,88.82
2018-07-06T03:24:57.473Z,89.07
2018-07-06T03:25:57.476Z,89.30
2018-07-06T03:26:57.342Z,88.53
2018-07-06T03:27:57.619Z,88.92
2018-07-06T03:28:57.477Z,89.40
2018-07-06T03:29:57.402Z,89.88
2018-07-06T03:30:57.481Z,89.40
2018-07-06T03:31:57.521Z,89.40
2018-07-06T03:32:57.314Z,89.59
2018-07-06T03:33:57.274Z,89.45
2018-07-06T03:34:57.265Z,89.74
2018-07-06T03:35:57.295Z,90.22
2018-07-06T03:36:57.239Z,89.83
2018-07-06T03:37:57.497Z,89.93
2018-07-06T03:38:58.949Z,90.22
2018-07-06T03:39:57.258Z,90.41
2018-07-06T03:40:57.506Z,89.64
2018-07-06T03:41:57.273Z,90.22
2018-07-06T03:42:57.497Z,90.31
2018-07-06T03:43:57.476Z,89.78
2018-07-06T03:44:57.489Z,90.31
2018-07-06T03:45:57.487Z,90.41
2018-07-06T03:46:57.259Z,89.88
2018-07-06T03:47:57.504Z,89.98
2018-07-06T03:48:57.855Z,90.45
2018-07-06T03:49:56.989Z,90.26
2018-07-06T03:50:57.310Z,90.26
2018-07-06T03:51:57.284Z,90.17
2018-07-06T03:53:03.547Z,90.22
2018-07-06T03:54:03.313Z,90.07
2018-07-06T03:54:57.601Z,90.80
2018-07-06T03:55:57.316Z,90.80
2018-07-06T03:56:57.913Z,91.37
2018-07-06T03:57:57.330Z,92.33
2018-07-06T03:58:57.483Z,91.47
2018-07-06T03:59:57.280Z,91.47
2018-07-06T04:00:57.540Z,91.85
2018-07-06T04:01:57.489Z,92.14
2018-07-06T04:02:57.588Z,91.85
2018-07-06T04:03:56.988Z,91.85
2018-07-06T04:04:57.342Z,91.75
2018-07-06T04:05:57.805Z,91.66
2018-07-06T04:06:57.482Z,91.08
2018-07-06T04:07:57.241Z,92.33
2018-07-06T04:08:57.325Z,93.01
2018-07-06T04:09:57.490Z,93.15
2018-07-06T04:10:57.490Z,92.62
2018-07-06T04:11:57.486Z,92.52
2018-07-06T04:12:57.827Z,92.24
2018-07-06T04:13:57.545Z,92.52
2018-07-06T04:14:57.229Z,91.75
2018-07-06T04:15:57.832Z,91.66
2018-07-06T04:16:57.507Z,91.85
2018-07-06T04:17:57.511Z,91.95
2018-07-06T04:18:57.825Z,92.05
2018-07-06T04:19:57.492Z,92.14
2018-07-06T04:20:57.288Z,91.95
2018-07-06T04:21:57.503Z,91.66
2018-07-06T04:22:57.410Z,91.56
2018-07-06T04:23:57.968Z,92.05
2018-07-06T04:24:57.496Z,90.84
2018-07-06T04:26:12.180Z,90.51
2018-07-06T04:26:57.273Z,90.17
2018-07-06T04:27:57.313Z,90.31
2018-07-06T04:28:57.497Z,90.22
2018-07-06T04:29:57.516Z,90.26
2018-07-06T04:30:57.608Z,90.17
2018-07-06T04:31:57.548Z,90.31
2018-07-06T04:32:57.316Z,90.55
2018-07-06T04:33:57.567Z,90.17
2018-07-06T04:34:56.944Z,91.28
2018-07-06T04:35:57.322Z,90.99
2018-07-06T04:36:57.500Z,90.80
2018-07-06T04:37:57.332Z,90.94
2018-07-06T04:38:57.318Z,90.26
2018-07-06T04:39:57.521Z,90.89
2018-07-06T04:40:57.850Z,91.47
2018-07-06T04:41:57.500Z,91.37
2018-07-06T04:42:59.165Z,91.37
2018-07-06T04:44:58.042Z,91.18
2018-07-06T04:45:57.282Z,91.08
2018-07-06T04:46:57.606Z,91.08
2018-07-06T04:47:57.541Z,92.24
2018-07-06T04:48:57.502Z,92.24
2018-07-06T04:49:57.520Z,92.62
2018-07-06T04:50:57.565Z,91.95
2018-07-06T04:51:57.257Z,92.14
2018-07-06T04:52:57.556Z,92.05
2018-07-06T04:53:57.595Z,91.47
2018-07-06T04:54:57.261Z,91.47
2018-07-06T04:55:57.592Z,91.95
2018-07-06T04:56:57.252Z,92.05
2018-07-06T04:57:57.337Z,91.66
2018-07-06T04:58:56.953Z,91.52
2018-07-06T04:59:57.609Z,91.75
2018-07-06T05:00:57.605Z,93.29
2018-07-06T05:01:57.520Z,93.29
2018-07-06T05:02:57.861Z,92.72
2018-07-06T05:03:57.533Z,92.05
2018-07-06T05:04:57.346Z,91.95
2018-07-06T05:05:57.510Z,92.14
2018-07-06T05:06:57.611Z,92.24
2018-07-06T05:07:57.535Z,92.62
2018-07-06T05:08:57.647Z,93.39
2018-07-06T05:09:57.232Z,92.91
2018-07-06T05:10:57.875Z,92.91
2018-07-06T05:11:57.605Z,93.49
2018-07-06T05:12:57.255Z,93.87
2018-07-06T05:13:57.935Z,93.68
2018-07-06T05:14:57.533Z,93.49
2018-07-06T05:15:57.608Z,93.39
2018-07-06T05:16:56.991Z,93.10
2018-07-06T05:17:57.555Z,94.16
2018-07-06T05:18:57.384Z,93.39
2018-07-06T05:19:57.329Z,93.29
2018-07-06T05:20:57.442Z,93.10
2018-07-06T05:21:57.876Z,93.68
2018-07-06T05:22:57.513Z,93.87
2018-07-06T05:23:57.569Z,94.16
2018-07-06T05:24:57.310Z,94.73
2018-07-06T05:25:57.310Z,94.64
2018-07-06T05:26:57.542Z,95.12
2018-07-06T05:27:57.565Z,94.73
2018-07-06T05:28:58.018Z,94.35
2018-07-06T05:29:57.587Z,94.16
2018-07-06T05:30:57.287Z,94.35
2018-07-06T05:31:57.579Z,94.73
2018-07-06T05:32:57.039Z,94.45
2018-07-06T05:33:57.590Z,93.53
2018-07-06T05:34:57.648Z,94.54
2018-07-06T05:35:57.516Z,94.83
2018-07-06T05:36:57.022Z,94.54
2018-07-06T05:37:57.594Z,95.40
2018-07-06T05:38:57.604Z,96.17
2018-07-06T05:39:57.642Z,97.47
2018-07-06T05:40:57.522Z,97.47
2018-07-06T05:41:57.990Z,96.75
2018-07-06T05:42:58.057Z,96.85
2018-07-06T05:43:57.024Z,96.27
2018-07-06T05:44:57.348Z,96.47
2018-07-06T05:45:57.963Z,96.66
2018-07-06T05:46:57.539Z,96.37
2018-07-06T05:47:57.924Z,96.08
2018-07-06T05:48:57.561Z,95.60
2018-07-06T05:49:57.601Z,95.89
2018-07-06T05:50:57.526Z,95.60
2018-07-06T05:51:57.595Z,95.21
2018-07-06T05:52:57.884Z,95.31
2018-07-06T05:53:57.554Z,94.88
2018-07-06T05:54:58.126Z,95.17
2018-07-06T05:55:57.286Z,94.78
2018-07-06T05:56:57.344Z,94.88
2018-07-06T05:57:57.528Z,94.88
2018-07-06T05:58:57.525Z,94.49
2018-07-06T05:59:59.583Z,94.49
2018-07-06T06:00:57.614Z,95.36
2018-07-06T06:01:58.526Z,95.03
2018-07-06T06:02:57.632Z,96.17
2018-07-06T06:03:57.478Z,95.70
2018-07-06T06:04:57.567Z,94.49
2018-07-06T06:05:57.570Z,94.88
2018-07-06T06:06:57.524Z,94.59
2018-07-06T06:08:04.081Z,94.88
2018-07-06T06:08:57.569Z,94.68
2018-07-06T06:09:57.577Z,94.40
2018-07-06T06:10:57.255Z,94.59
2018-07-06T06:11:57.528Z,94.30
2018-07-06T06:12:57.624Z,93.34
2018-07-06T06:13:58.034Z,92.57
2018-07-06T06:14:57.534Z,92.47
2018-07-06T06:15:57.667Z,93.24
2018-07-06T06:16:57.551Z,93.87
2018-07-06T06:17:57.387Z,94.59
2018-07-06T06:18:57.404Z,93.73
2018-07-06T06:19:57.583Z,92.67
2018-07-06T06:20:57.308Z,92.09
2018-07-06T06:21:57.991Z,92.47
2018-07-06T06:22:57.034Z,92.23
2018-07-06T06:23:57.891Z,92.19
2018-07-06T06:24:57.334Z,91.36
2018-07-06T06:25:57.930Z,90.31
2018-07-06T06:26:56.949Z,90.02
2018-07-06T06:27:57.612Z,90.50
2018-07-06T06:28:59.185Z,90.50
2018-07-06T06:29:57.395Z,90.59
2018-07-06T06:30:57.608Z,90.31
2018-07-06T06:31:59.202Z,90.79
2018-07-06T06:32:57.665Z,90.98
2018-07-06T06:33:58.116Z,90.69
2018-07-06T06:34:57.628Z,89.83
2018-07-06T06:35:57.385Z,89.64
2018-07-06T06:36:57.370Z,89.83
2018-07-06T06:37:57.893Z,89.78
2018-07-06T06:38:57.551Z,89.64
2018-07-06T06:39:58.105Z,90.21
2018-07-06T06:40:57.905Z,89.78
2018-07-06T06:41:57.944Z,89.44
2018-07-06T06:42:58.059Z,89.44
2018-07-06T06:43:57.538Z,90.50
2018-07-06T06:44:57.545Z,91.85
2018-07-06T06:45:57.603Z,91.08
2018-07-06T06:46:57.365Z,90.89
2018-07-06T06:47:57.805Z,90.02
2018-07-06T06:48:57.678Z,88.53
2018-07-06T06:49:57.927Z,88.43
2018-07-06T06:50:57.566Z,88.04
2018-07-06T06:51:57.959Z,88.43
2018-07-06T06:52:57.543Z,88.53
2018-07-06T06:53:58.228Z,87.85
2018-07-06T06:54:57.958Z,88.04
2018-07-06T06:55:57.499Z,87.76
2018-07-06T06:56:57.171Z,87.76
2018-07-06T06:57:58.081Z,87.37
2018-07-06T06:58:57.645Z,87.27
2018-07-06T06:59:57.075Z,87.41
2018-07-06T07:00:57.388Z,87.32
2018-07-06T07:01:57.786Z,87.46
2018-07-06T07:02:57.595Z,87.12
2018-07-06T07:03:57.603Z,87.27
2018-07-06T07:04:57.596Z,88.24
2018-07-06T07:05:57.584Z,87.42
2018-07-06T07:06:57.545Z,88.14
2018-07-06T07:07:57.903Z,87.56
2018-07-06T07:08:57.599Z,86.99
2018-07-06T07:09:57.350Z,86.89
2018-07-06T07:10:57.556Z,86.99
2018-07-06T07:11:59.577Z,86.26
2018-07-06T07:12:57.595Z,86.45
2018-07-06T07:13:57.686Z,86.45
2018-07-06T07:14:57.568Z,86.16
2018-07-06T07:15:57.941Z,86.69
2018-07-06T07:16:57.535Z,86.45
2018-07-06T07:17:57.379Z,86.45
2018-07-06T07:18:57.345Z,87.32
2018-07-06T07:19:57.574Z,86.93
2018-07-06T07:20:57.561Z,87.85
2018-07-06T07:21:57.552Z,87.51
2018-07-06T07:22:57.557Z,86.99
2018-07-06T07:23:57.438Z,87.46
2018-07-06T07:24:57.556Z,87.46
2018-07-06T07:25:57.947Z,87.85
2018-07-06T07:26:57.625Z,87.37
2018-07-06T07:27:58.580Z,86.83
2018-07-06T07:28:57.591Z,86.65
2018-07-06T07:29:57.513Z,85.49
2018-07-06T07:30:57.964Z,85.78
2018-07-06T07:31:57.600Z,85.78
2018-07-06T07:32:57.913Z,84.81
2018-07-06T07:33:57.687Z,85.78
2018-07-06T07:34:57.507Z,86.65
2018-07-06T07:35:57.718Z,86.60
2018-07-06T07:36:57.556Z,85.97
2018-07-06T07:37:58.414Z,86.35
2018-07-06T07:38:57.657Z,85.39
2018-07-06T07:39:57.683Z,84.53
2018-07-06T07:40:57.566Z,83.95
2018-07-06T07:41:57.636Z,83.70
2018-07-06T07:42:57.930Z,83.28
2018-07-06T07:43:57.573Z,84.53
2018-07-06T07:44:57.323Z,84.23
2018-07-06T07:45:57.606Z,84.05
2018-07-06T07:46:57.498Z,84.18
2018-07-06T07:47:57.627Z,83.70
2018-07-06T07:48:57.544Z,82.93
2018-07-06T07:49:57.648Z,82.45
2018-07-06T07:50:57.084Z,82.45
2018-07-06T07:51:57.568Z,82.06
2018-07-06T07:52:57.118Z,81.68
2018-07-06T07:53:57.572Z,82.64
2018-07-06T07:54:57.630Z,82.74
2018-07-06T07:55:58.060Z,81.77
2018-07-06T07:56:57.572Z,81.62
2018-07-06T07:57:57.989Z,81.01
2018-07-06T07:58:58.280Z,80.81
2018-07-06T07:59:57.623Z,80.43
2018-07-06T08:00:58.183Z,81.20
2018-07-06T08:01:58.136Z,81.01
2018-07-06T08:02:59.770Z,80.18
2018-07-06T08:03:57.942Z,80.08
2018-07-06T08:04:57.615Z,79.41
2018-07-06T08:05:57.712Z,79.89
2018-07-06T08:06:57.673Z,79.31
2018-07-06T08:07:57.957Z,79.31
2018-07-06T08:08:57.573Z,80.71
2018-07-06T08:09:58.013Z,80.27
2018-07-06T08:10:57.524Z,80.66
2018-07-06T08:11:57.565Z,80.23
2018-07-06T08:12:58.021Z,80.81
2018-07-06T08:13:57.642Z,81.96
2018-07-06T08:14:57.985Z,81.39
2018-07-06T08:15:57.580Z,80.66
2018-07-06T08:16:57.953Z,80.66
2018-07-06T08:17:57.925Z,79.98
2018-07-06T08:19:01.520Z,79.50
2018-07-06T08:19:57.662Z,79.50
2018-07-06T08:20:57.697Z,78.92
2018-07-06T08:21:57.583Z,78.34
2018-07-06T08:22:57.201Z,77.96
2018-07-06T08:23:57.988Z,77.76
2018-07-06T08:24:57.675Z,78.15
2018-07-06T08:25:58.020Z,77.86
2018-07-06T08:26:57.688Z,78.63
2018-07-06T08:27:57.567Z,79.02
2018-07-06T08:28:57.669Z,78.83
2018-07-06T08:29:57.917Z,78.15
2018-07-06T08:30:57.320Z,77.67
2018-07-06T08:31:57.589Z,77.81
2018-07-06T08:32:57.986Z,77.51
2018-07-06T08:33:57.656Z,77.13
2018-07-06T08:34:57.574Z,75.30
2018-07-06T08:35:58.044Z,74.72
2018-07-06T08:36:57.683Z,75.10
2018-07-06T08:37:57.643Z,74.95
2018-07-06T08:38:57.627Z,74.27
2018-07-06T08:39:57.913Z,73.79
2018-07-06T08:40:57.961Z,73.99
2018-07-06T08:41:58.025Z,73.63
2018-07-06T08:42:57.634Z,71.86
2018-07-06T08:43:58.311Z,71.58
2018-07-06T08:44:58.067Z,72.54
2018-07-06T08:45:57.210Z,71.80
2018-07-06T08:47:00.195Z,71.22
2018-07-06T08:47:57.684Z,70.16
2018-07-06T08:48:57.668Z,69.97
2018-07-06T08:49:58.130Z,70.45
2018-07-06T08:50:57.627Z,70.16
2018-07-06T08:51:57.638Z,70.45
2018-07-06T08:52:58.039Z,70.26
2018-07-06T08:53:57.592Z,70.54
2018-07-06T08:54:58.072Z,70.16
2018-07-06T08:55:57.649Z,70.70
2018-07-06T08:56:57.591Z,71.28
2018-07-06T08:57:58.274Z,71.77
2018-07-06T08:58:58.087Z,72.79
2018-07-06T08:59:57.727Z,72.60
2018-07-06T09:00:58.142Z,72.99
2018-07-06T09:01:57.723Z,73.27
2018-07-06T09:02:57.685Z,72.99
2018-07-06T09:03:58.189Z,72.73
2018-07-06T09:04:57.605Z,72.44
2018-07-06T09:05:57.987Z,71.67
2018-07-06T09:06:57.595Z,72.25
2018-07-06T09:07:59.964Z,72.54
2018-07-06T09:08:58.406Z,72.54
2018-07-06T09:09:57.700Z,72.21
2018-07-06T09:10:58.153Z,71.96
2018-07-06T09:11:58.049Z,71.96
2018-07-06T09:12:59.162Z,72.44
2018-07-06T09:13:57.581Z,71.96
2018-07-06T09:14:57.678Z,71.77
2018-07-06T09:15:58.081Z,72.06
2018-07-06T09:16:58.168Z,71.19
2018-07-06T09:17:57.673Z,70.70
2018-07-06T09:18:57.605Z,69.84
2018-07-06T09:19:58.376Z,70.36
2018-07-06T09:20:58.187Z,69.49
2018-07-06T09:21:57.605Z,68.91
2018-07-06T09:22:58.420Z,69.20
2018-07-06T09:23:58.164Z,69.20
2018-07-06T09:24:57.958Z,68.91
2018-07-06T09:25:57.975Z,69.00
2018-07-06T09:26:57.239Z,69.20
2018-07-06T09:27:57.885Z,68.91
2018-07-06T09:28:57.619Z,68.52
2018-07-06T09:29:59.714Z,68.91
2018-07-06T09:30:57.949Z,68.04
2018-07-06T09:32:02.329Z,68.33
2018-07-06T09:32:57.963Z,68.81
2018-07-06T09:33:57.542Z,68.62
2018-07-06T09:34:57.609Z,68.04
2018-07-06T09:35:58.093Z,67.46
2018-07-06T09:36:59.609Z,67.36
2018-07-06T09:37:57.727Z,67.07
2018-07-06T09:38:59.985Z,66.30
2018-07-06T09:39:57.743Z,66.01
2018-07-06T09:40:58.066Z,66.11
2018-07-06T09:41:58.172Z,65.82
2018-07-06T09:42:59.676Z,66.24
2018-07-06T09:43:58.199Z,65.85
2018-07-06T09:44:59.497Z,65.37
2018-07-06T09:45:57.689Z,64.89
2018-07-06T09:46:57.665Z,64.43
2018-07-06T09:47:57.938Z,64.24
2018-07-06T09:48:58.402Z,63.47
2018-07-06T09:49:58.063Z,63.76
2018-07-06T09:50:58.189Z,63.47
2018-07-06T09:52:00.634Z,64.53
2018-07-06T09:52:58.116Z,64.63
2018-07-06T09:53:57.974Z,64.69
2018-07-06T09:54:58.118Z,64.98
2018-07-06T09:56:00.904Z,65.37
2018-07-06T09:56:57.685Z,65.50
2018-07-06T09:57:58.723Z,65.40
2018-07-06T09:58:58.570Z,65.30
2018-07-06T09:59:58.120Z,64.63
2018-07-06T10:00:58.486Z,64.82
2018-07-06T10:01:59.120Z,64.05
2018-07-06T10:02:58.508Z,63.28
2018-07-06T10:03:57.932Z,63.56
2018-07-06T10:04:56.269Z,63.50
2018-07-06T10:05:58.231Z,63.02
2018-07-06T10:06:58.161Z,62.12
2018-07-06T10:07:58.195Z,62.21
2018-07-06T10:08:58.121Z,61.44
2018-07-06T10:09:58.465Z,61.15
2018-07-06T10:10:57.330Z,61.05
2018-07-06T10:11:58.693Z,60.79
2018-07-06T10:12:58.568Z,60.79
2018-07-06T10:13:58.207Z,60.50
2018-07-06T10:14:58.607Z,60.21
2018-07-06T10:15:58.501Z,60.50
2018-07-06T10:16:58.485Z,61.08
2018-07-06T10:17:58.129Z,61.08
2018-07-06T10:18:58.204Z,61.34
2018-07-06T10:19:58.488Z,61.05
2018-07-06T10:20:58.178Z,61.44
2018-07-06T10:21:58.408Z,61.15
2018-07-06T10:22:58.193Z,61.34
2018-07-06T10:23:58.513Z,60.76
2018-07-06T10:24:58.254Z,60.76
2018-07-06T10:25:58.016Z,60.96
2018-07-06T10:26:58.513Z,60.21
2018-07-06T10:27:58.165Z,59.73
2018-07-06T10:29:00.231Z,59.83
2018-07-06T10:29:57.880Z,60.05
2018-07-06T10:30:58.568Z,59.18
2018-07-06T10:32:00.604Z,59.15
2018-07-06T10:32:58.102Z,59.15
2018-07-06T10:33:57.760Z,59.86
2018-07-06T10:34:58.059Z,58.21
2018-07-06T10:35:58.495Z,57.05
2018-07-06T10:36:58.134Z,55.89
2018-07-06T10:37:58.889Z,55.11
2018-07-06T10:38:58.126Z,55.89
2018-07-06T10:39:58.700Z,55.31
2018-07-06T10:40:58.790Z,55.41
2018-07-06T10:41:58.160Z,55.21
2018-07-06T10:42:58.199Z,56.18
2018-07-06T10:43:59.124Z,54.93
2018-07-06T10:44:57.572Z,54.25
2018-07-06T10:45:58.266Z,54.73
2018-07-06T10:46:58.181Z,55.31
2018-07-06T10:47:58.004Z,55.79
2018-07-06T10:48:57.927Z,55.60
2018-07-06T10:49:56.386Z,55.41
2018-07-06T10:50:58.244Z,55.21
2018-07-06T10:51:58.140Z,55.41
2018-07-06T10:52:58.144Z,55.73
2018-07-06T10:53:58.500Z,55.53
2018-07-06T10:54:58.663Z,54.85
2018-07-06T10:55:58.239Z,53.50
2018-07-06T10:56:58.277Z,54.17
2018-07-06T10:57:58.310Z,53.79
2018-07-06T10:58:59.843Z,53.99
2018-07-06T10:59:58.170Z,53.89
2018-07-06T11:00:58.221Z,54.21
2018-07-06T11:01:58.582Z,53.53
2018-07-06T11:02:58.566Z,53.23
2018-07-06T11:03:58.522Z,52.75
2018-07-06T11:04:58.250Z,51.98
2018-07-06T11:05:58.251Z,51.59
2018-07-06T11:06:58.197Z,51.68
2018-07-06T11:08:00.239Z,52.53
2018-07-06T11:09:00.300Z,52.56
2018-07-06T11:09:58.241Z,52.46
2018-07-06T11:10:58.211Z,52.00
2018-07-06T11:11:58.180Z,52.00
2018-07-06T11:12:58.152Z,51.72
2018-07-06T11:13:58.159Z,50.65
2018-07-06T11:14:58.150Z,50.52
2018-07-06T11:15:58.201Z,50.43
2018-07-06T11:16:58.620Z,51.98
2018-07-06T11:17:58.529Z,51.72
2018-07-06T11:18:58.211Z,51.32
2018-07-06T11:19:58.014Z,51.13
2018-07-06T11:20:58.203Z,51.32
2018-07-06T11:21:58.295Z,50.94
2018-07-06T11:22:58.352Z,51.04
2018-07-06T11:23:57.652Z,51.20
2018-07-06T11:24:58.668Z,51.20
2018-07-06T11:25:58.151Z,50.84
2018-07-06T11:26:57.994Z,50.16
2018-07-06T11:27:58.154Z,49.87
2018-07-06T11:28:58.238Z,49.87
2018-07-06T11:29:58.024Z,49.41
2018-07-06T11:30:58.059Z,49.34
2018-07-06T11:31:58.114Z,49.02
2018-07-06T11:32:57.909Z,49.00
2018-07-06T11:33:58.005Z,48.83
2018-07-06T11:34:57.938Z,48.71
2018-07-06T11:35:58.519Z,47.47
2018-07-06T11:36:58.531Z,47.47
2018-07-06T11:37:57.992Z,47.67
2018-07-06T11:38:57.662Z,47.60
2018-07-06T11:39:58.377Z,46.22
2018-07-06T11:40:58.020Z,45.92
2018-07-06T11:41:58.218Z,46.04
2018-07-06T11:42:59.950Z,45.85
2018-07-06T11:43:58.561Z,45.95
2018-07-06T11:44:58.906Z,45.95
2018-07-06T11:45:58.508Z,46.24
2018-07-06T11:46:58.426Z,45.97
2018-07-06T11:47:58.569Z,45.97
2018-07-06T11:48:58.489Z,46.58
2018-07-06T11:49:58.213Z,46.01
2018-07-06T11:50:58.165Z,44.92
2018-07-06T11:51:58.270Z,45.80
2018-07-06T11:52:57.592Z,45.80
2018-07-06T11:53:57.530Z,45.61
2018-07-06T11:54:57.910Z,45.53
2018-07-06T11:55:58.210Z,44.46
2018-07-06T11:56:57.668Z,44.34
2018-07-06T11:57:58.169Z,44.24
2018-07-06T11:58:57.987Z,44.92
2018-07-06T11:59:58.168Z,44.65
2018-07-06T12:00:57.971Z,44.15
2018-07-06T12:01:58.555Z,44.44
2018-07-06T12:02:58.268Z,44.81
2018-07-06T12:03:58.207Z,45.20
2018-07-06T12:04:58.198Z,45.12
2018-07-06T12:05:58.676Z,44.56
2018-07-06T12:06:58.307Z,44.19
2018-07-06T12:07:58.252Z,44.29
2018-07-06T12:08:58.027Z,43.71
2018-07-06T12:09:57.694Z,44.00
2018-07-06T12:10:58.041Z,44.38
2018-07-06T12:11:58.188Z,44.38
2018-07-06T12:12:58.773Z,44.46
2018-07-06T12:13:58.239Z,44.65
2018-07-06T12:14:58.204Z,44.58
2018-07-06T12:15:58.423Z,44.65
2018-07-06T12:16:58.559Z,45.04
2018-07-06T12:17:58.044Z,44.38
2018-07-06T12:18:57.961Z,44.29
2018-07-06T12:19:58.232Z,44.48
2018-07-06T12:20:58.559Z,44.41
2018-07-06T12:21:58.439Z,44.41
2018-07-06T12:22:58.711Z,43.54
2018-07-06T12:23:57.021Z,42.85
2018-07-06T12:24:58.190Z,42.66
2018-07-06T12:25:58.704Z,42.85
2018-07-06T12:26:58.287Z,42.29
2018-07-06T12:27:58.871Z,42.27
2018-07-06T12:28:58.535Z,42.58
2018-07-06T12:29:58.549Z,41.53
2018-07-06T12:30:58.186Z,41.24
2018-07-06T12:31:58.300Z,41.13
2018-07-06T12:32:58.229Z,42.08
2018-07-06T12:33:58.575Z,42.27
2018-07-06T12:34:58.562Z,42.19
2018-07-06T12:35:58.188Z,41.53
2018-07-06T12:36:58.622Z,41.24
2018-07-06T12:37:58.037Z,41.63
2018-07-06T12:38:58.301Z,42.00
2018-07-06T12:39:59.122Z,42.31
2018-07-06T12:40:59.189Z,42.31
2018-07-06T12:41:58.710Z,42.19
2018-07-06T12:42:58.763Z,42.56
2018-07-06T12:43:58.747Z,42.95
2018-07-06T12:44:58.246Z,42.87
2018-07-06T12:46:00.675Z,43.26
2018-07-06T12:47:00.270Z,42.29
2018-07-06T12:48:00.199Z,42.02
2018-07-06T12:48:57.817Z,42.11
2018-07-06T12:49:58.800Z,41.05
2018-07-06T12:50:58.716Z,40.08
2018-07-06T12:51:58.593Z,40.09
2018-07-06T12:52:58.742Z,38.85
2018-07-06T12:53:58.536Z,38.85